createdAt,value
2019-03-25T00:02:03.660Z,13.00
2019-03-25T00:07:10.239Z,18.43
2019-03-25T00:12:14.074Z,18.75
2019-03-25T00:17:23.118Z,13.82
2019-03-25T00:22:29.585Z,14.86
2019-03-25T00:27:34.411Z,12.83
2019-03-25T00:32:38.427Z,13.00
2019-03-25T00:37:43.371Z,15.00
2019-03-25T00:42:47.556Z,12.83
2019-03-25T00:47:53.938Z,14.71
2019-03-25T00:53:00.306Z,15.29
2019-03-25T00:58:06.950Z,17.29
2019-03-25T01:03:10.147Z,18.67
2019-03-25T01:08:14.115Z,18.67
2019-03-25T01:13:19.802Z,20.71
2019-03-25T01:18:23.022Z,23.00
2019-03-25T01:23:27.670Z,22.00
2019-03-25T01:28:30.938Z,24.33
2019-03-25T01:33:34.851Z,23.50
2019-03-25T01:38:40.484Z,21.12
2019-03-25T01:43:44.558Z,20.00
2019-03-25T01:48:51.022Z,19.71
2019-03-25T01:53:54.891Z,19.00
2019-03-25T01:59:03.248Z,17.00
2019-03-25T02:04:09.447Z,21.25
2019-03-25T02:09:13.359Z,22.00
2019-03-25T02:14:19.860Z,21.43
2019-03-25T02:19:27.994Z,19.62
2019-03-25T02:24:34.449Z,22.00
2019-03-25T02:29:42.710Z,18.37
2019-03-25T02:34:46.595Z,22.00
2019-03-25T02:39:49.762Z,15.75
2019-03-25T02:44:54.693Z,22.00
2019-03-25T02:50:00.521Z,20.37
2019-03-25T02:55:05.554Z,22.00
2019-03-25T03:00:10.470Z,24.50
2019-03-25T03:05:14.364Z,23.33
2019-03-25T03:10:18.156Z,25.33
2019-03-25T03:15:23.838Z,25.00
2019-03-25T03:20:27.931Z,27.67
2019-03-25T03:25:32.107Z,30.00
2019-03-25T03:30:36.240Z,32.75
2019-03-25T03:35:46.506Z,32.13
2019-03-25T03:40:54.651Z,36.38
2019-03-25T03:45:59.510Z,37.00
2019-03-25T03:51:07.840Z,35.25
2019-03-25T03:56:14.179Z,35.25
2019-03-25T04:01:18.191Z,42.25
2019-03-25T04:06:22.380Z,45.00
2019-03-25T04:11:26.467Z,44.00
2019-03-25T04:16:33.198Z,42.75
2019-03-25T04:21:40.839Z,45.50
2019-03-25T04:26:46.097Z,41.71
2019-03-25T04:31:49.521Z,46.50
2019-03-25T04:36:58.037Z,49.75
2019-03-25T04:42:03.038Z,50.00
2019-03-25T04:47:11.439Z,52.25
2019-03-25T04:52:20.755Z,50.63
2019-03-25T04:57:28.318Z,53.44
2019-03-25T05:02:33.458Z,57.00
2019-03-25T05:07:40.575Z,55.38
2019-03-25T05:12:49.892Z,61.37
2019-03-25T05:17:54.432Z,56.50
2019-03-25T05:23:02.214Z,59.89
2019-03-25T05:28:09.172Z,60.38
2019-03-25T05:33:15.245Z,58.00
2019-03-25T05:38:26.039Z,66.77
2019-03-25T05:43:30.227Z,61.20
2019-03-25T05:48:34.996Z,55.50
2019-03-25T05:54:00.945Z,61.00
2019-03-25T05:59:54.831Z,58.00
2019-03-25T06:05:06.732Z,61.00
2019-03-25T06:10:19.945Z,59.00
2019-03-25T06:15:25.951Z,60.56
2019-03-25T06:20:32.203Z,54.13
2019-03-25T06:25:40.099Z,52.38
2019-03-25T06:30:43.945Z,54.00
2019-03-25T06:35:51.172Z,58.87
2019-03-25T06:40:55.802Z,57.25
2019-03-25T06:46:04.973Z,58.38
2019-03-25T06:51:09.427Z,56.00
2019-03-25T06:56:17.381Z,57.44
2019-03-25T07:01:23.616Z,56.50
2019-03-25T11:45:26.709Z,24.00
2019-03-25T11:50:29.649Z,25.00
2019-03-25T11:55:38.301Z,40.44
2019-03-25T12:00:42.067Z,25.00
2019-03-25T12:05:46.109Z,24.00
2019-03-25T12:10:49.629Z,33.00
2019-03-25T12:15:55.023Z,24.43
2019-03-25T12:21:02.126Z,25.00
2019-03-25T12:26:06.421Z,35.75
2019-03-25T12:31:10.867Z,44.00
2019-03-25T12:36:21.069Z,38.09
2019-03-25T12:41:25.435Z,24.25
2019-03-25T12:46:31.576Z,21.71
2019-03-25T12:51:36.754Z,22.57
2019-03-25T12:56:41.094Z,24.33
2019-03-25T13:01:53.258Z,29.82
2019-03-25T13:07:01.475Z,25.50
2019-03-25T13:12:05.715Z,24.33
2019-03-25T13:17:12.751Z,22.00
2019-03-25T13:22:17.892Z,29.00
2019-03-25T13:27:26.453Z,34.63
2019-03-25T13:32:31.542Z,33.75
2019-03-25T13:37:35.002Z,26.00
2019-03-25T13:42:42.667Z,21.12
2019-03-25T13:47:48.520Z,19.86
2019-03-25T13:52:55.178Z,24.63
2019-03-25T13:57:58.576Z,21.50
2019-03-25T14:03:03.970Z,18.43
2019-03-25T14:08:09.569Z,17.14
2019-03-25T14:13:17.054Z,18.29
2019-03-25T14:18:20.234Z,19.00
2019-03-25T14:23:25.280Z,20.14
2019-03-25T14:28:30.518Z,18.57
2019-03-25T14:33:37.311Z,20.62
2019-03-25T14:38:41.670Z,28.75
2019-03-25T14:43:45.226Z,21.00
2019-03-25T14:48:48.641Z,24.00
2019-03-25T14:53:57.264Z,31.50
2019-03-25T14:59:03.295Z,24.87
2019-03-25T15:04:09.291Z,30.25
2019-03-25T15:09:12.874Z,25.25
2019-03-25T15:14:23.939Z,29.31
2019-03-25T15:19:34.175Z,36.50
2019-03-25T15:24:39.871Z,44.50
2019-03-25T15:29:46.356Z,28.87
2019-03-25T15:34:56.182Z,31.87
2019-03-25T15:40:08.206Z,34.08
2019-03-25T15:45:22.263Z,30.94
2019-03-25T15:50:35.453Z,32.63
2019-03-25T15:55:41.955Z,36.00
2019-03-25T16:00:52.396Z,34.58
2019-03-25T16:05:56.873Z,46.25
2019-03-25T16:11:02.801Z,46.63
2019-03-25T16:16:11.922Z,47.75
2019-03-25T16:21:22.198Z,37.67
2019-03-25T16:26:26.225Z,37.83
2019-03-25T16:31:31.286Z,44.20
2019-03-25T16:36:35.916Z,34.67
2019-03-25T16:41:40.018Z,35.00
2019-03-25T16:46:50.004Z,49.33
2019-03-25T16:51:53.490Z,58.00
2019-03-25T16:56:58.824Z,53.00
2019-03-25T17:02:03.849Z,38.17
2019-03-25T17:07:11.605Z,59.33
2019-03-25T17:12:15.471Z,47.00
2019-03-25T17:17:25.157Z,53.09
2019-03-25T17:22:33.186Z,45.00
2019-03-25T17:27:36.733Z,30.25
2019-03-25T17:32:41.171Z,20.00
2019-03-25T17:37:45.226Z,33.60
2019-03-25T17:42:49.160Z,34.00
2019-03-25T17:47:54.249Z,30.71
2019-03-25T17:52:58.372Z,37.00
2019-03-25T17:58:03.107Z,43.00
2019-03-25T18:03:11.271Z,61.00
2019-03-25T18:08:18.308Z,37.88
2019-03-25T18:13:28.887Z,47.33
2019-03-25T18:18:37.874Z,43.75
2019-03-25T18:23:42.458Z,42.50
2019-03-25T18:28:53.034Z,44.56
2019-03-25T18:33:56.955Z,43.00
2019-03-25T18:39:09.667Z,47.00
2019-03-25T18:44:39.747Z,41.75
2019-03-25T18:55:30.451Z,34.56
2019-03-25T19:00:42.378Z,39.73
2019-03-25T19:05:53.041Z,39.62
2019-03-25T19:11:10.202Z,34.55
2019-03-25T19:16:18.333Z,25.89
2019-03-25T19:21:24.616Z,30.00
2019-03-25T19:26:28.232Z,29.00
2019-03-25T19:31:34.300Z,30.75
2019-03-25T19:36:37.203Z,25.67
2019-03-25T19:41:45.082Z,28.00
2019-03-25T19:46:56.335Z,23.09
2019-03-25T19:52:02.374Z,20.20
2019-03-25T19:57:06.511Z,38.50
2019-03-25T20:02:19.214Z,23.50
2019-03-25T20:07:24.386Z,21.10
2019-03-25T20:12:28.455Z,26.50
2019-03-25T20:17:35.950Z,20.37
2019-03-25T20:22:39.824Z,20.80
2019-03-25T20:27:43.746Z,33.50
2019-03-25T20:32:49.783Z,25.50
2019-03-25T20:37:53.776Z,26.00
2019-03-25T20:42:58.929Z,21.43
2019-03-25T20:48:04.424Z,27.29
2019-03-25T20:53:10.661Z,34.71
2019-03-25T20:58:20.056Z,21.55
2019-03-25T21:03:32.783Z,138.07
2019-03-25T21:08:40.749Z,20.62
2019-03-25T21:13:48.236Z,30.25
2019-03-25T21:18:59.246Z,22.71
2019-03-25T21:24:05.110Z,30.25
2019-03-25T21:29:14.497Z,24.70
2019-03-25T21:34:24.314Z,27.67
2019-03-25T21:39:32.022Z,35.78
2019-03-25T21:44:40.604Z,41.25
2019-03-25T21:49:45.706Z,35.00
2019-03-25T21:54:51.711Z,39.00
2019-03-25T21:59:56.447Z,45.00
2019-03-25T22:05:00.425Z,49.67
2019-03-25T22:10:17.263Z,29.00
2019-03-25T22:20:25.504Z,38.71
2019-03-25T22:25:30.405Z,24.29
2019-03-25T22:30:34.604Z,30.00
2019-03-25T22:35:38.614Z,42.00
2019-03-25T22:40:42.766Z,42.50
2019-03-25T22:45:51.210Z,43.25
2019-03-25T22:50:57.242Z,46.63
2019-03-25T22:56:02.267Z,39.75
2019-03-25T23:01:11.098Z,45.50
2019-03-25T23:06:19.490Z,46.75
2019-03-25T23:11:25.624Z,45.63
2019-03-25T23:16:32.508Z,49.38
2019-03-25T23:21:37.589Z,45.50
2019-03-25T23:26:41.249Z,47.33
2019-03-25T23:31:45.374Z,42.50
2019-03-25T23:36:53.928Z,44.88
2019-03-25T23:42:01.356Z,43.50
2019-03-25T23:47:08.654Z,44.75
2019-03-25T23:52:12.618Z,42.00
2019-03-25T23:57:18.281Z,44.38
